Retrouvez également nos données météorologiques sur:

UK Metoffice

Weather Underground

AWEKAS

Citizen Weather Observer Program (CWOP)



Rapports METAR à proximité

   
LFOJ - Montargis
Mise à jour: 18-01-2021 20:30
Nuageux  
Nuageux  
   Vent: Sud 13 km/h
Vent: Sud 13 km/h
Température: 4°C
éolien: 1°C
Point de rosée: 2°C
Humidité: 87%
Pression atmosphérique: 1025 hPa
Nuages: Nuageux
Visibilité: More than 10 km
Nébulosité: Nuageux 4800 ft
LFOJ 181930Z AUTO 19007KT 9999 OVC048 04/02 Q1025 TEMPO BKN008
LFOJ - Orléans
Mise à jour: 18-01-2021 20:30
Nuageux  
Nuageux  
   Vent: Sud 13 km/h
Vent: Sud 13 km/h
Température: 4°C
éolien: 1°C
Point de rosée: 2°C
Humidité: 87%
Pression atmosphérique: 1025 hPa
Nuages: Nuageux
Visibilité: More than 10 km
Nébulosité: Nuageux 4800 ft
LFOJ 181930Z AUTO 19007KT 9999 OVC048 04/02 Q1025 TEMPO BKN008
LFQB - Sens
Mise à jour: 18-01-2021 20:30
Partiellement nuageux  
Partiellement nuageux  
   Vent: Sud 13 km/h
Vent: Sud 13 km/h
Température: 1°C
éolien: -3°C
Point de rosée: -1°C
Humidité: 87%
Pression atmosphérique: 1025 hPa
Nuages: Partiellement nuageux
Visibilité: More than 10 km
Nébulosité: Partiellement nuageux 3700 ft
LFQB 181930Z AUTO 18007KT 9999 SCT037 01/M01 Q1025
LFQB - Auxerre
Mise à jour: 18-01-2021 20:30
Partiellement nuageux  
Partiellement nuageux  
   Vent: Sud 13 km/h
Vent: Sud 13 km/h
Température: 1°C
éolien: -3°C
Point de rosée: -1°C
Humidité: 87%
Pression atmosphérique: 1025 hPa
Nuages: Partiellement nuageux
Visibilité: More than 10 km
Nébulosité: Partiellement nuageux 3700 ft
LFQB 181930Z AUTO 18007KT 9999 SCT037 01/M01 Q1025
LFPO - Paris
Mise à jour: 18-01-2021 20:30
Nuageux  
Nuageux  
   Vent: SSO 13 km/h
Vent: SSO 13 km/h
Température: 5°C
éolien: 2°C
Point de rosée: 3°C
Humidité: 87%
Pression atmosphérique: 1024 hPa
Nuages: Nuageux
Visibilité: More than 10 km
Nébulosité: Nuageux 4400 ft
LFPO 181930Z 20007KT 9999 BKN044 05/03 Q1024 NOSIG
LFLX - Bourges
Mise à jour: 18-01-2021 20:30
Nuageux  
Nuageux  
   Vent: SSO 5.6 km/h
Vent: SSO 5.6 km/h
Température: 5°C
éolien: 4°C
Point de rosée: 2°C
Humidité: 81%
Pression atmosphérique: 1027 hPa
Nuages: Nuageux
Visibilité: More than 10 km
Nébulosité: Peu de nuages 3100 ft,
Nuageux 4200 ft
LFLX 181930Z AUTO 20003KT 9999 FEW031 OVC042 05/02 Q1027 NOSIG

Original script by  Saratoga-weather.org Adapted for the template by  Weerstation Leuven